• Join FlightAware (Why Join?)
  • Login
  • US Flag 
08:58AM EDT


 

Airport Tracker/Info


-or-


 

Live Flight TrackerFlight Track Log ✈ AAL2345 ✈ 06-Jun-2013 ✈ KORD - KDFW

Flight Track Log - Related Links

Times and Time Zones

All times are in EDT time to prevent confusion due to time zone crossing. See the AAL2345 flight status page for this flight to view local times or setup timezone preferences in your user account.

Time Position Orientation Groundspeed Altitude Reporting Facility
EDT Latitude Longitude Course Direction KTS MPH feet Rate Location/Type
07:00PM 41.9667 -87.8667 194° South 180 207 2,300  Level Chicago TRACON
07:01PM 41.9333 -87.8167 132° Southeast 224 258 3,700 1,200 Climbing Chicago TRACON
07:02PM 41.8678 -87.7581 146° Southeast 237 273 5,000 1,260 Climbing Chicago Center
07:03PM 41.7507 -88.1798 201° Southwest  Level Estimated
07:03PM 41.7894 -87.7514 176° South 267 307 6,500  Level Chicago Center
07:04PM 41.6736 -88.2705 197° South  Level Estimated
07:05PM 41.5776 -88.2222 159° South  Level FlightAware Approximate
07:05PM 41.7472 -87.8219 231° Southwest 278 320 8,900  Level Chicago Center
07:06PM 41.4990 -88.3157 194° South  Level Estimated
07:06PM 41.7247 -87.9417 256° West 279 321 12,400  Level Chicago Center
07:07PM 41.6853 -88.0294 239° Southwest 302 348 14,500 1,260 Climbing Chicago Center
07:08PM 41.6075 -88.0725 202° Southwest 303 349 15,100 960 Climbing Chicago Center
07:09PM 41.5294 -88.1136 202° Southwest 307 353 16,500 1,740 Climbing Chicago Center
07:10PM 41.4264 -88.1678 202° Southwest 344 396 18,700 1,920 Climbing Chicago Center
07:11PM 41.3364 -88.2119 200° South 352 405 20,500 1,740 Climbing Chicago Center
07:12PM 41.2428 -88.2533 198° South 359 413 22,300 1,620 Climbing Chicago Center
07:13PM 41.1483 -88.2964 199° South 361 415 23,900 1,500 Climbing Chicago Center
07:14PM 41.0317 -88.3497 199° South 370 426 25,400 1,200 Climbing Chicago Center
07:15PM 40.9567 -88.4439 223° Southwest 369 425 26,400 900 Climbing Chicago Center
07:16PM 40.8747 -88.5369 221° Southwest 387 445 27,300 720 Climbing Chicago Center
07:17PM 40.7886 -88.6300 219° Southwest 400 460 28,000 300 Climbing Chicago Center
07:18PM 40.6981 -88.7283 219° Southwest 417 480 28,000  Level Chicago Center
07:19PM 40.5911 -88.8433 219° Southwest 418 481 28,000  Level Chicago Center
07:20PM 40.4989 -88.9403 219° Southwest 421 484 28,000  Level Chicago Center
07:21PM 40.4083 -89.0375 219° Southwest 419 482 28,000  Level Chicago Center
07:22PM 40.3169 -89.1342 219° Southwest 420 483 28,000  Level Chicago Center
07:23PM 40.2264 -89.2319 220° Southwest 420 483 28,000  Level Chicago Center
07:24PM 40.1344 -89.3286 219° Southwest 422 486 28,000  Level Chicago Center
07:25PM 40.0433 -89.4258 219° Southwest 418 481 28,000  Level Kansas City Center
07:26PM 39.9528 -89.5228 219° Southwest 420 483 28,000  Level Kansas City Center
07:27PM 39.8611 -89.6189 219° Southwest 421 484 28,000  Level Kansas City Center
07:28PM 39.7508 -89.7339 219° Southwest 422 486 28,000  Level Kansas City Center
07:29PM 39.6547 -89.8350 219° Southwest 424 488 28,000  Level Kansas City Center
07:30PM 39.5636 -89.9289 218° Southwest 422 486 28,000  Level Kansas City Center
07:31PM 39.4728 -90.0250 219° Southwest 423 487 28,000  Level Kansas City Center
07:32PM 39.3808 -90.1197 219° Southwest 424 488 28,000  Level Kansas City Center
07:33PM 39.2889 -90.2167 219° Southwest 426 490 28,000  Level Kansas City Center
07:34PM 39.1972 -90.3111 219° Southwest 426 490 28,000  Level Kansas City Center
07:36PM 39.0883 -90.4242 219° Southwest 424 488 28,000  Level Kansas City Center
07:37PM 38.9967 -90.5181 219° Southwest 424 488 28,000  Level Kansas City Center
07:38PM 38.8997 -90.6150 218° Southwest 427 491 28,000  Level Kansas City Center
07:39PM 38.8114 -90.7050 218° Southwest 429 494 28,000  Level Kansas City Center
07:40PM 38.7008 -90.8156 218° Southwest 428 493 28,000  Level Kansas City Center
07:41PM 38.6089 -90.9081 218° Southwest 425 489 28,000  Level Kansas City Center
07:42PM 38.5169 -91.0006 218° Southwest 423 487 28,000  Level Kansas City Center
07:43PM 38.4236 -91.0928 218° Southwest 426 490 28,000  Level Kansas City Center
07:44PM 38.3289 -91.1856 218° Southwest 428 493 28,000  Level Kansas City Center
07:45PM 38.2358 -91.2789 218° Southwest 428 493 28,000  Level Kansas City Center
07:46PM 38.1297 -91.3836 218° Southwest 427 491 28,000  Level Kansas City Center
07:47PM 38.0347 -91.4758 217° Southwest 427 491 28,000 -1,440 Level Kansas City Center
07:48PM 37.9464 -91.5633 218° Southwest 405 466 25,100 -1,980 Descending Kansas City Center
07:49PM 37.8319 -91.6761 218° Southwest 421 484 24,000 -540 Descending Kansas City Center
07:50PM 37.7331 -91.7736 218° Southwest 439 505 24,000  Level Kansas City Center
07:51PM 37.6350 -91.8692 218° Southwest 441 507 24,000  Level Kansas City Center
07:52PM 37.5375 -91.9631 217° Southwest 438 504 24,000  Level Kansas City Center
07:53PM 37.4431 -92.0608 219° Southwest 436 502 24,000  Level Kansas City Center
07:54PM 37.3506 -92.1672 222° Southwest 441 507 24,000  Level Kansas City Center
07:55PM 37.2586 -92.2706 222° Southwest 442 509 24,000  Level Kansas City Center
07:56PM 37.1678 -92.3706 221° Southwest 436 502 24,000  Level Kansas City Center
07:57PM 37.0775 -92.4697 221° Southwest 430 495 24,000  Level Kansas City Center
07:58PM 36.9731 -92.5842 221° Southwest 416 479 24,000  Level Kansas City Center
07:59PM 36.8864 -92.6764 220° Southwest 409 471 24,000  Level Kansas City Center
08:00PM 36.8000 -92.7706 221° Southwest 410 472 24,000  Level Kansas City Center
08:01PM 36.7133 -92.8631 221° Southwest 409 471 24,000  Level Kansas City Center
08:02PM 36.6261 -92.9589 221° Southwest 412 474 24,000  Level Kansas City Center
08:03PM 36.5378 -93.0506 220° Southwest 413 475 24,000  Level Kansas City Center
08:04PM 36.4522 -93.1458 222° Southwest 414 476 24,000  Level Kansas City Center
08:05PM 36.3494 -93.2569 221° Southwest 412 474 24,000  Level Kansas City Center
08:06PM 36.3267 -93.2833 223° Southwest 418 481 24,000  Level Memphis Center
08:07PM 36.2389 -93.3781 221° Southwest 418 481 24,000  Level Memphis Center
08:08PM 36.1553 -93.4700 222° Southwest 418 481 24,000  Level Memphis Center
08:09PM 36.0675 -93.5617 220° Southwest 418 481 24,000  Level Memphis Center
08:10PM 35.9689 -93.6603 219° Southwest 423 487 24,000  Level Memphis Center
08:11PM 35.8808 -93.7567 222° Southwest 423 487 24,000  Level Memphis Center
08:13PM 35.7047 -93.9439 221° Southwest 423 487 24,000  Level Memphis Center
08:14PM 35.6144 -94.0369 220° Southwest 423 487 24,000  Level Memphis Center
08:15PM 35.5261 -94.1275 220° Southwest 423 487 24,000  Level Memphis Center
08:16PM 35.4378 -94.2203 221° Southwest 423 487 24,000  Level Memphis Center
08:17PM 35.3472 -94.3128 220° Southwest 423 487 24,000  Level Memphis Center
08:18PM 35.2586 -94.4103 222° Southwest 423 487 24,000  Level Memphis Center
08:20PM 35.0850 -94.6050 223° Southwest 418 481 24,000  Level Fort Worth Center
08:21PM 34.9972 -94.6967 221° Southwest 405 466 24,000  Level Fort Worth Center
08:22PM 34.9097 -94.7931 222° Southwest 411 473 24,000  Level Fort Worth Center
08:23PM 34.8136 -94.8972 222° Southwest 424 488 24,000  Level Fort Worth Center
08:24PM 34.7219 -94.9983 222° Southwest 437 503 24,000  Level Fort Worth Center
08:25PM 34.6317 -95.0892 220° Southwest 432 497 24,000  Level Fort Worth Center
08:26PM 34.5417 -95.1875 222° Southwest 432 497 24,000  Level Fort Worth Center
08:27PM 34.4517 -95.2831 221° Southwest 432 497 24,000  Level Fort Worth Center
08:28PM 34.3572 -95.3808 221° Southwest 438 504 24,000  Level Fort Worth Center
08:29PM 34.2669 -95.4783 222° Southwest 444 511 24,000  Level Fort Worth Center
08:30PM 34.1908 -95.5556 220° Southwest 444 511 24,000  Level Fort Worth Center
08:31PM 34.0964 -95.6528 220° Southwest 450 518 24,000 -360 Level Fort Worth Center
08:32PM 33.9894 -95.7703 222° Southwest 450 518 23,300 -1,320 Descending Fort Worth Center
08:33PM 33.8925 -95.8697 220° Southwest 450 518 21,400 -1,980 Descending Fort Worth Center
08:34PM 33.7997 -95.9661 221° Southwest 456 525 19,400 -1,920 Descending Fort Worth Center
08:35PM 33.7172 -96.0500 220° Southwest 444 511 17,600 -1,920 Descending Fort Worth Center
08:36PM 33.6244 -96.1461 221° Southwest 421 484 15,600 -1,740 Descending Fort Worth Center
08:37PM 33.5561 -96.2169 221° Southwest 386 444 14,200 -1,500 Descending Fort Worth Center
08:38PM 33.4756 -96.3103 224° Southwest 362 417 12,600 -1,500 Descending Fort Worth Center
08:39PM 33.4178 -96.3806 225° Southwest 350 403 11,200 -780 Descending Fort Worth Center
08:40PM 33.3494 -96.4611 225° Southwest 330 380 11,100 -60 Descending Fort Worth Center
08:41PM 33.2936 -96.5261 224° Southwest 311 358 11,100  Level Fort Worth Center
08:42PM 33.2358 -96.5964 226° Southwest 305 351 11,100  Level Fort Worth Center
08:43PM 33.1714 -96.6714 224° Southwest 305 351 11,100  Level Fort Worth Center
08:44PM 33.1156 -96.7364 224° Southwest 305 351 11,100 -60 Level Fort Worth Center
08:45PM 33.0667 -96.8000 227° Southwest 287 330 11,000  Descending Dallas / Fort Worth TRACON
08:46PM 33.0167 -96.8500 220° Southwest 247 284 11,100  Climbing Dallas / Fort Worth TRACON
08:47PM 32.9667 -96.9000 220° Southwest 252 290 11,000 -720 Descending Dallas / Fort Worth TRACON
08:48PM 32.9000 -96.9000 180° South 276 318 9,800 -1,200 Descending Dallas / Fort Worth TRACON
08:49PM 32.8167 -96.9000 180° South 269 310 8,600 -1,200 Descending Dallas / Fort Worth TRACON
08:50PM 32.7500 -96.9000 180° South 256 295 7,400 -1,320 Descending Dallas / Fort Worth TRACON
08:51PM 32.6833 -96.9167 192° South 249 287 5,900 -1,620 Descending Dallas / Fort Worth TRACON
08:52PM 32.6667 -97.0000 257° West 226 260 4,100 -1,800 Descending Dallas / Fort Worth TRACON